createdAt,value
2018-07-04T00:02:01.721Z,18.15
2018-07-04T00:04:52.784Z,18.09
2018-07-04T00:07:45.620Z,18.05
2018-07-04T00:10:36.537Z,17.95
2018-07-04T00:13:28.936Z,17.91
2018-07-04T00:16:20.698Z,17.88
2018-07-04T00:19:15.783Z,17.80
2018-07-04T00:22:10.307Z,17.73
2018-07-04T00:25:06.806Z,17.69
2018-07-04T00:27:58.556Z,17.69
2018-07-04T00:30:56.222Z,17.70
2018-07-04T00:33:51.100Z,17.70
2018-07-04T00:36:42.766Z,17.68
2018-07-04T00:39:35.699Z,17.66
2018-07-04T00:42:27.520Z,17.61
2018-07-04T00:45:17.557Z,17.59
2018-07-04T00:48:09.242Z,17.60
2018-07-04T00:51:00.642Z,17.56
2018-07-04T00:53:50.822Z,17.53
2018-07-04T00:56:47.804Z,17.57
2018-07-04T00:59:38.298Z,17.59
2018-07-04T01:02:30.043Z,17.60
2018-07-04T01:05:22.682Z,17.56
2018-07-04T01:08:14.269Z,17.51
2018-07-04T01:11:05.963Z,17.45
2018-07-04T01:13:57.440Z,17.42
2018-07-04T01:16:48.718Z,17.44
2018-07-04T01:19:45.942Z,17.45
2018-07-04T01:22:37.761Z,17.49
2018-07-04T01:25:27.780Z,17.44
2018-07-04T01:28:19.142Z,17.41
2018-07-04T01:31:08.984Z,17.34
2018-07-04T01:34:01.139Z,17.30
2018-07-04T01:36:53.979Z,17.24
2018-07-04T01:39:44.763Z,17.21
2018-07-04T01:42:40.545Z,17.18
2018-07-04T01:45:33.698Z,17.13
2018-07-04T01:48:25.702Z,17.11
2018-07-04T01:51:19.025Z,17.11
2018-07-04T01:54:08.937Z,17.09
2018-07-04T01:56:59.620Z,17.06
2018-07-04T01:59:52.615Z,17.09
2018-07-04T02:02:42.598Z,17.07
2018-07-04T02:05:33.461Z,17.01
2018-07-04T02:08:24.523Z,17.00
2018-07-04T02:11:15.739Z,16.99
2018-07-04T02:14:15.780Z,16.98
2018-07-04T02:17:07.981Z,16.90
2018-07-04T02:19:58.637Z,16.91
2018-07-04T02:22:49.799Z,16.90
2018-07-04T02:25:41.058Z,16.81
2018-07-04T02:28:32.142Z,16.78
2018-07-04T02:31:24.125Z,16.81
2018-07-04T02:34:14.781Z,16.78
2018-07-04T02:37:06.602Z,16.73
2018-07-04T02:39:57.405Z,16.69
2018-07-04T02:42:47.241Z,16.69
2018-07-04T02:45:39.698Z,16.69
2018-07-04T02:48:30.313Z,16.70
2018-07-04T02:51:21.761Z,16.74
2018-07-04T02:54:11.324Z,16.76
2018-07-04T02:57:04.837Z,16.71
2018-07-04T02:59:55.700Z,16.61
2018-07-04T03:02:49.479Z,16.55
2018-07-04T03:05:39.357Z,16.52
2018-07-04T03:08:30.221Z,16.46
2018-07-04T03:11:21.377Z,16.47
2018-07-04T03:14:13.180Z,16.49
2018-07-04T03:17:04.318Z,16.52
2018-07-04T03:19:59.581Z,16.53
2018-07-04T03:22:51.637Z,16.52
2018-07-04T03:25:44.040Z,16.48
2018-07-04T03:28:34.924Z,16.50
2018-07-04T03:31:26.122Z,16.47
2018-07-04T03:34:15.823Z,16.40
2018-07-04T03:37:07.302Z,16.38
2018-07-04T03:39:58.096Z,16.33
2018-07-04T03:42:48.967Z,16.37
2018-07-04T03:45:42.022Z,16.36
2018-07-04T03:48:33.100Z,16.30
2018-07-04T03:51:22.843Z,16.27
2018-07-04T03:54:14.180Z,16.25
2018-07-04T03:57:12.919Z,16.32
2018-07-04T04:00:05.823Z,16.34
2018-07-04T04:02:57.077Z,16.30
2018-07-04T04:05:49.620Z,16.33
2018-07-04T04:08:35.702Z,16.39
2018-07-04T04:11:26.882Z,16.42
2018-07-04T04:14:19.098Z,16.46
2018-07-04T04:17:10.378Z,16.50
2018-07-04T04:20:02.564Z,16.58
2018-07-04T04:22:53.081Z,16.64
2018-07-04T04:25:44.480Z,16.67
2018-07-04T04:28:37.043Z,16.77
2018-07-04T04:31:27.343Z,16.80
2018-07-04T04:34:18.140Z,16.83
2018-07-04T04:37:08.798Z,16.94
2018-07-04T04:39:57.238Z,17.06
2018-07-04T04:42:48.601Z,17.11
2018-07-04T22:35:45.283Z,20.98
2018-07-04T22:38:36.241Z,20.90
2018-07-04T22:41:33.602Z,20.83
2018-07-04T22:44:24.298Z,20.78
2018-07-04T22:47:15.496Z,20.75
2018-07-04T22:50:07.217Z,20.72
2018-07-04T22:53:05.621Z,20.66
2018-07-04T22:56:02.801Z,20.60
2018-07-04T22:58:54.724Z,20.55
2018-07-04T23:01:45.437Z,20.52
2018-07-04T23:04:36.680Z,20.45
2018-07-04T23:07:31.276Z,20.40
2018-07-04T23:10:24.158Z,20.36
2018-07-04T23:13:14.961Z,20.34
2018-07-04T23:16:07.014Z,20.33
2018-07-04T23:18:57.099Z,20.33
2018-07-04T23:21:47.707Z,20.32
2018-07-04T23:24:39.783Z,20.29
2018-07-04T23:27:33.219Z,20.28
2018-07-04T23:30:24.702Z,20.23
2018-07-04T23:33:17.080Z,20.16
2018-07-04T23:36:07.999Z,20.16
2018-07-04T23:38:59.664Z,20.14
2018-07-04T23:41:50.097Z,20.08
2018-07-04T23:44:40.867Z,19.99
2018-07-04T23:47:33.420Z,19.92
2018-07-04T23:50:23.623Z,19.87
2018-07-04T23:53:14.726Z,19.82
2018-07-04T23:56:06.766Z,19.83
2018-07-04T23:58:56.399Z,19.78
